createdAt,value
2019-05-06T00:00:14.427Z,1008.15
2019-05-06T00:01:14.977Z,1008.17
2019-05-06T00:02:14.400Z,1008.23
2019-05-06T00:03:14.398Z,1008.18
2019-05-06T00:04:14.383Z,1008.16
2019-05-06T00:05:14.450Z,1008.20
2019-05-06T00:06:14.560Z,1008.24
2019-05-06T00:07:14.349Z,1008.19
2019-05-06T00:08:14.529Z,1008.19
2019-05-06T00:09:14.794Z,1008.19
2019-05-06T00:10:14.333Z,1008.20
2019-05-06T00:11:14.325Z,1008.13
2019-05-06T00:12:14.515Z,1008.16
2019-05-06T00:13:14.311Z,1008.14
2019-05-06T00:14:14.285Z,1008.10
2019-05-06T00:15:14.475Z,1008.20
2019-05-06T00:16:14.497Z,1008.23
2019-05-06T00:17:14.593Z,1008.23
2019-05-06T00:18:14.221Z,1008.23
2019-05-06T00:19:14.240Z,1008.18
2019-05-06T00:20:14.724Z,1008.14
2019-05-06T00:21:14.787Z,1008.12
2019-05-06T00:22:14.317Z,1008.11
2019-05-06T00:23:14.339Z,1008.12
2019-05-06T00:24:14.666Z,1008.09
2019-05-06T00:25:16.790Z,1008.13
2019-05-06T00:26:14.148Z,1008.18
2019-05-06T00:27:14.245Z,1008.16
2019-05-06T00:28:14.107Z,1008.15
2019-05-06T00:29:14.095Z,1008.14
2019-05-06T00:30:14.902Z,1008.17
2019-05-06T00:31:16.575Z,1008.13
2019-05-06T00:32:15.063Z,1008.17
2019-05-06T00:33:14.057Z,1008.11
2019-05-06T00:34:14.040Z,1008.15
2019-05-06T00:35:14.255Z,1008.17
2019-05-06T00:36:14.221Z,1008.11
2019-05-06T00:37:14.633Z,1008.11
2019-05-06T00:38:13.996Z,1008.18
2019-05-06T00:39:14.968Z,1008.21
2019-05-06T00:40:14.108Z,1008.15
2019-05-06T00:41:14.424Z,1008.13
2019-05-06T00:42:14.004Z,1008.11
2019-05-06T00:43:14.115Z,1008.15
2019-05-06T00:44:14.395Z,1008.09
2019-05-06T00:45:13.933Z,1008.06
2019-05-06T00:46:13.966Z,1008.13
2019-05-06T00:47:13.924Z,1008.11
2019-05-06T00:48:14.054Z,1008.10
2019-05-06T00:49:14.318Z,1008.11
2019-05-06T00:50:14.304Z,1008.09
2019-05-06T00:51:13.845Z,1008.11
2019-05-06T00:52:13.834Z,1008.18
2019-05-06T00:53:14.180Z,1008.08
2019-05-06T00:54:14.297Z,1008.09
2019-05-06T00:55:13.844Z,1008.17
2019-05-06T00:56:14.065Z,1008.17
2019-05-06T00:57:14.026Z,1008.17
2019-05-06T00:58:14.231Z,1008.21
2019-05-06T00:59:14.335Z,1008.18
2019-05-06T01:00:13.742Z,1008.24
2019-05-06T01:01:25.937Z,1008.19
2019-05-06T01:02:14.718Z,1008.16
2019-05-06T01:03:14.094Z,1008.21
2019-05-06T01:04:14.008Z,1008.21
2019-05-06T01:05:14.009Z,1008.17
2019-05-06T01:06:14.204Z,1008.11
2019-05-06T01:07:14.046Z,1008.11
2019-05-06T01:08:14.123Z,1008.12
2019-05-06T01:09:14.126Z,1008.10
2019-05-06T01:10:14.275Z,1008.18
2019-05-06T01:11:14.440Z,1008.16
2019-05-06T01:12:14.338Z,1008.17
2019-05-06T01:13:14.545Z,1008.14
2019-05-06T01:14:14.830Z,1008.12
2019-05-06T01:15:14.279Z,1008.11
2019-05-06T01:16:15.621Z,1008.12
2019-05-06T01:17:13.548Z,1008.09
2019-05-06T01:18:13.841Z,1008.12
2019-05-06T01:19:14.165Z,1008.16
2019-05-06T01:20:13.970Z,1008.11
2019-05-06T01:21:14.551Z,1008.13
2019-05-06T01:22:14.018Z,1008.11
2019-05-06T01:23:14.374Z,1008.06
2019-05-06T01:24:14.674Z,1008.17
2019-05-06T01:25:14.212Z,1008.10
2019-05-06T01:26:15.023Z,1008.14
2019-05-06T01:27:14.556Z,1008.13
2019-05-06T01:28:13.876Z,1008.16
2019-05-06T01:29:14.564Z,1008.17
2019-05-06T01:30:13.811Z,1008.18
2019-05-06T01:31:13.985Z,1008.15
2019-05-06T01:32:13.933Z,1008.19
2019-05-06T01:33:14.615Z,1008.10
2019-05-06T01:34:13.811Z,1008.17
2019-05-06T01:35:14.023Z,1008.14
2019-05-06T01:36:14.181Z,1008.12
2019-05-06T01:37:14.238Z,1008.15
2019-05-06T01:38:14.655Z,1008.17
2019-05-06T01:39:13.892Z,1008.11
2019-05-06T01:40:14.318Z,1008.14
2019-05-06T01:41:13.671Z,1008.16
2019-05-06T01:42:13.855Z,1008.17
2019-05-06T01:43:14.556Z,1008.19
2019-05-06T01:44:13.716Z,1008.16
2019-05-06T01:45:14.182Z,1008.20
2019-05-06T01:46:14.024Z,1008.22
2019-05-06T01:47:14.534Z,1008.17
2019-05-06T01:48:14.345Z,1008.12
2019-05-06T01:49:13.755Z,1008.19
2019-05-06T01:50:14.044Z,1008.11
2019-05-06T01:51:14.278Z,1008.12
2019-05-06T01:52:14.684Z,1008.20
2019-05-06T01:53:14.033Z,1008.11
2019-05-06T01:54:14.114Z,1008.16
2019-05-06T01:55:14.171Z,1008.13
2019-05-06T01:56:14.499Z,1008.14
2019-05-06T01:57:13.753Z,1008.11
2019-05-06T01:58:14.567Z,1008.13
2019-05-06T01:59:13.958Z,1008.12
2019-05-06T02:00:14.056Z,1008.09
2019-05-06T02:01:14.825Z,1008.24
2019-05-06T02:02:14.283Z,1008.13
2019-05-06T02:03:14.738Z,1008.17
2019-05-06T02:04:13.800Z,1008.22
2019-05-06T02:05:13.813Z,1008.16
2019-05-06T02:06:14.175Z,1008.13
2019-05-06T02:07:14.486Z,1008.13
2019-05-06T02:08:13.510Z,1008.14
2019-05-06T02:09:13.720Z,1008.16
2019-05-06T02:10:14.196Z,1008.20
2019-05-06T02:11:14.915Z,1008.18
2019-05-06T02:12:13.768Z,1008.16
2019-05-06T02:13:14.215Z,1008.13
2019-05-06T02:14:14.008Z,1008.13
2019-05-06T02:15:14.599Z,1008.14
2019-05-06T02:16:14.533Z,1008.14
2019-05-06T02:17:14.392Z,1008.11
2019-05-06T02:18:13.520Z,1008.06
2019-05-06T02:19:14.795Z,1008.11
2019-05-06T02:20:13.806Z,1008.10
2019-05-06T02:21:13.890Z,1008.13
2019-05-06T02:22:13.610Z,1008.16
2019-05-06T02:23:14.573Z,1008.11
2019-05-06T02:24:13.489Z,1008.10
2019-05-06T02:25:13.830Z,1008.16
2019-05-06T02:26:14.136Z,1008.13
2019-05-06T02:27:13.968Z,1008.13
2019-05-06T02:28:14.307Z,1008.15
2019-05-06T02:29:12.724Z,1008.20
2019-05-06T02:30:15.293Z,1008.20
2019-05-06T02:31:14.856Z,1008.24
2019-05-06T02:32:25.486Z,1008.18
2019-05-06T02:33:15.380Z,1008.19
2019-05-06T02:34:15.290Z,1008.21
2019-05-06T02:35:14.948Z,1008.19
2019-05-06T02:36:14.928Z,1008.23
2019-05-06T02:37:14.676Z,1008.13
2019-05-06T02:38:12.649Z,1008.17
2019-05-06T02:39:14.103Z,1008.18
2019-05-06T02:40:12.710Z,1008.24
2019-05-06T02:41:13.494Z,1008.16
2019-05-06T02:42:13.197Z,1008.21
2019-05-06T02:43:13.577Z,1008.25
2019-05-06T02:44:13.686Z,1008.27
2019-05-06T02:45:12.784Z,1008.19
2019-05-06T02:46:13.019Z,1008.18
2019-05-06T02:47:13.729Z,1008.18
2019-05-06T02:48:13.803Z,1008.27
2019-05-06T02:49:13.220Z,1008.23
2019-05-06T02:50:13.249Z,1008.28
2019-05-06T02:51:13.315Z,1008.21
2019-05-06T02:52:14.061Z,1008.24
2019-05-06T02:53:13.357Z,1008.18
2019-05-06T02:54:13.553Z,1008.12
2019-05-06T02:55:13.035Z,1008.17
2019-05-06T02:56:13.360Z,1008.19
2019-05-06T02:57:13.155Z,1008.23
2019-05-06T02:58:14.828Z,1008.16
2019-05-06T02:59:12.885Z,1008.13
2019-05-06T03:00:13.159Z,1008.14
2019-05-06T03:01:13.557Z,1008.19
2019-05-06T03:02:14.022Z,1008.10
2019-05-06T03:03:13.998Z,1008.14
2019-05-06T03:04:13.136Z,1008.10
2019-05-06T03:05:13.090Z,1008.04
2019-05-06T03:06:13.105Z,1008.13
2019-05-06T03:07:14.529Z,1008.10
2019-05-06T03:08:13.396Z,1008.09
2019-05-06T03:09:13.553Z,1008.18
2019-05-06T03:10:12.880Z,1008.16
2019-05-06T03:11:13.508Z,1008.15
2019-05-06T03:12:13.649Z,1008.03
2019-05-06T03:13:14.291Z,1008.10
2019-05-06T03:14:13.854Z,1008.12
2019-05-06T03:15:16.157Z,1008.11
2019-05-06T03:16:14.219Z,1008.10
2019-05-06T03:17:14.121Z,1008.12
2019-05-06T03:18:14.759Z,1008.08
2019-05-06T03:19:13.323Z,1008.07
2019-05-06T03:20:13.223Z,1008.01
2019-05-06T03:21:13.848Z,1008.05
2019-05-06T03:22:13.394Z,1008.04
2019-05-06T03:23:14.234Z,1007.96
2019-05-06T03:24:14.532Z,1008.02
2019-05-06T03:25:13.301Z,1008.04
2019-05-06T03:26:13.697Z,1008.03
2019-05-06T03:27:14.287Z,1008.01
2019-05-06T03:28:13.241Z,1008.10
2019-05-06T03:29:13.678Z,1008.00
2019-05-06T03:30:16.435Z,1008.02
2019-05-06T03:31:16.533Z,1008.02
2019-05-06T03:32:16.666Z,1008.08
2019-05-06T03:33:37.799Z,1008.04
2019-05-06T03:34:27.854Z,1008.05
2019-05-06T03:35:31.337Z,1008.04
2019-05-06T03:36:23.627Z,1008.08
2019-05-06T03:37:16.761Z,1008.05
2019-05-06T03:38:13.779Z,1008.02
2019-05-06T03:39:13.868Z,1008.05
2019-05-06T03:40:13.864Z,1008.02
2019-05-06T03:41:13.867Z,1008.06
2019-05-06T03:42:15.992Z,1008.01
2019-05-06T03:43:13.660Z,1007.99
2019-05-06T03:44:16.358Z,1008.04
2019-05-06T03:45:13.183Z,1008.00
2019-05-06T03:46:14.326Z,1008.05
2019-05-06T03:47:13.962Z,1008.02
2019-05-06T03:48:12.940Z,1008.02
2019-05-06T03:49:13.464Z,1008.03
2019-05-06T03:50:13.323Z,1007.97
2019-05-06T03:51:13.524Z,1008.03
2019-05-06T03:52:13.637Z,1008.00
2019-05-06T03:53:14.034Z,1008.06
2019-05-06T03:54:12.833Z,1008.09
2019-05-06T03:55:13.878Z,1008.04
2019-05-06T03:56:16.920Z,1008.01
2019-05-06T03:57:13.782Z,1008.01
2019-05-06T03:58:13.495Z,1008.07
2019-05-06T03:59:13.321Z,1008.07
2019-05-06T04:00:13.288Z,1008.09
2019-05-06T04:01:13.218Z,1008.03
2019-05-06T04:02:13.258Z,1008.12
2019-05-06T04:03:13.983Z,1008.00
2019-05-06T04:04:12.591Z,1007.99
2019-05-06T04:05:13.234Z,1008.02
2019-05-06T04:06:13.785Z,1007.92
2019-05-06T04:07:13.925Z,1007.98
2019-05-06T04:08:12.701Z,1008.01
2019-05-06T04:09:13.272Z,1007.97
2019-05-06T04:10:13.623Z,1007.97
2019-05-06T04:11:13.617Z,1007.97
2019-05-06T04:12:12.810Z,1008.00
2019-05-06T04:13:13.441Z,1008.01
2019-05-06T04:14:14.007Z,1007.97
2019-05-06T04:15:14.108Z,1007.97
2019-05-06T04:16:13.801Z,1008.02
2019-05-06T04:17:13.053Z,1008.04
2019-05-06T04:18:12.528Z,1008.08
2019-05-06T04:19:13.103Z,1008.04
2019-05-06T04:20:12.766Z,1008.06
2019-05-06T04:21:13.445Z,1008.07
2019-05-06T04:22:12.928Z,1008.08
2019-05-06T04:23:13.378Z,1008.04
2019-05-06T04:24:13.356Z,1008.10
2019-05-06T04:25:13.660Z,1008.13
2019-05-06T04:26:13.396Z,1008.10
2019-05-06T04:27:13.516Z,1008.04
2019-05-06T04:28:12.906Z,1008.16
2019-05-06T04:29:13.091Z,1008.11
2019-05-06T04:31:07.383Z,1008.07
2019-05-06T04:32:07.370Z,1008.10
2019-05-06T04:33:07.357Z,1008.10
2019-05-06T04:34:14.062Z,1008.11
2019-05-06T04:35:08.360Z,1008.11
2019-05-06T04:36:07.324Z,1008.10
2019-05-06T04:37:07.311Z,1008.12
2019-05-06T04:38:07.299Z,1008.10
2019-05-06T04:39:07.287Z,1008.11
2019-05-06T04:40:07.278Z,1008.12
2019-05-06T04:41:07.284Z,1008.12
2019-05-06T04:42:09.753Z,1008.10
2019-05-06T04:43:07.240Z,1008.11
2019-05-06T04:44:07.229Z,1008.10
2019-05-06T04:45:07.218Z,1008.07
2019-05-06T04:46:07.244Z,1008.11
2019-05-06T04:47:07.196Z,1008.11
2019-05-06T04:48:07.188Z,1008.12
2019-05-06T04:49:10.713Z,1008.13
2019-05-06T04:50:08.159Z,1008.10
2019-05-06T04:51:07.171Z,1008.17
2019-05-06T04:52:07.142Z,1008.14
2019-05-06T04:53:07.131Z,1008.16
2019-05-06T04:54:07.114Z,1008.12
2019-05-06T04:55:07.106Z,1008.14
2019-05-06T04:56:07.112Z,1008.17
2019-05-06T04:57:07.079Z,1008.17
2019-05-06T04:58:07.079Z,1008.19
2019-05-06T04:59:07.060Z,1008.16
2019-05-06T05:00:07.046Z,1008.17
2019-05-06T05:01:07.053Z,1008.16
2019-05-06T05:02:07.023Z,1008.13
2019-05-06T05:03:07.030Z,1008.24
2019-05-06T05:04:22.773Z,1008.21
2019-05-06T05:05:07.986Z,1008.22
2019-05-06T05:06:06.998Z,1008.11
2019-05-06T05:07:06.966Z,1008.20
2019-05-06T05:08:06.953Z,1008.23
2019-05-06T05:09:06.941Z,1008.21
2019-05-06T05:10:06.930Z,1008.21
2019-05-06T05:11:06.956Z,1008.29
2019-05-06T05:12:06.906Z,1008.20
2019-05-06T05:13:06.895Z,1008.23
2019-05-06T05:14:06.881Z,1008.26
2019-05-06T05:15:06.874Z,1008.25
2019-05-06T05:16:06.859Z,1008.24
2019-05-06T05:17:06.865Z,1008.26
2019-05-06T05:18:06.835Z,1008.30
2019-05-06T05:19:06.823Z,1008.25
2019-05-06T05:20:06.812Z,1008.25
2019-05-06T05:21:06.806Z,1008.23
2019-05-06T05:22:06.813Z,1008.20
2019-05-06T05:23:06.781Z,1008.26
2019-05-06T05:24:06.765Z,1008.23
2019-05-06T05:25:06.752Z,1008.32
2019-05-06T05:26:06.765Z,1008.26
2019-05-06T05:27:06.753Z,1008.32
2019-05-06T05:28:06.721Z,1008.32
2019-05-06T05:29:06.705Z,1008.33
2019-05-06T05:30:06.697Z,1008.31
2019-05-06T05:31:06.684Z,1008.23
2019-05-06T05:32:06.693Z,1008.35
2019-05-06T05:33:06.661Z,1008.31
2019-05-06T05:34:06.648Z,1008.30
2019-05-06T05:35:06.641Z,1008.29
2019-05-06T05:36:06.626Z,1008.32
2019-05-06T05:37:06.614Z,1008.33
2019-05-06T05:38:06.622Z,1008.25
2019-05-06T05:39:06.593Z,1008.33
2019-05-06T05:40:06.580Z,1008.34
2019-05-06T05:41:06.568Z,1008.26
2019-05-06T05:42:06.554Z,1008.36
2019-05-06T05:43:06.565Z,1008.32
2019-05-06T05:44:06.533Z,1008.36
2019-05-06T05:45:06.521Z,1008.37
2019-05-06T05:46:06.513Z,1008.34
2019-05-06T05:47:06.499Z,1008.41
2019-05-06T05:48:06.506Z,1008.37
2019-05-06T05:49:06.476Z,1008.38
2019-05-06T05:50:06.463Z,1008.45
2019-05-06T05:51:06.457Z,1008.43
2019-05-06T05:52:06.440Z,1008.41
2019-05-06T05:53:06.449Z,1008.45
2019-05-06T05:54:06.417Z,1008.43
2019-05-06T05:55:06.403Z,1008.49
2019-05-06T05:56:06.393Z,1008.48
2019-05-06T05:57:06.381Z,1008.47
2019-05-06T05:58:06.388Z,1008.45
2019-05-06T05:59:06.357Z,1008.45
2019-05-06T06:00:06.347Z,1008.38
2019-05-06T06:01:06.336Z,1008.36
2019-05-06T06:02:06.325Z,1008.40
2019-05-06T06:03:07.217Z,1008.35
2019-05-06T06:04:06.299Z,1008.36
2019-05-06T06:05:06.288Z,1008.35
2019-05-06T06:06:06.277Z,1008.33
2019-05-06T06:07:06.263Z,1008.30
2019-05-06T06:08:06.275Z,1008.40
2019-05-06T06:09:06.243Z,1008.36
2019-05-06T06:10:06.231Z,1008.38
2019-05-06T06:11:06.219Z,1008.37
2019-05-06T06:12:06.206Z,1008.41
2019-05-06T06:13:06.213Z,1008.33
2019-05-06T06:14:06.185Z,1008.38
2019-05-06T06:15:06.173Z,1008.40
2019-05-06T06:16:06.163Z,1008.41
2019-05-06T06:17:06.150Z,1008.42
2019-05-06T06:18:06.156Z,1008.36
2019-05-06T06:19:06.154Z,1008.39
2019-05-06T06:20:06.117Z,1008.42
2019-05-06T06:21:17.732Z,1008.43
2019-05-06T06:22:07.092Z,1008.40
2019-05-06T06:23:06.099Z,1008.43
2019-05-06T06:24:06.068Z,1008.47
2019-05-06T06:25:06.058Z,1008.38
2019-05-06T06:26:06.045Z,1008.45
2019-05-06T06:27:06.032Z,1008.40
2019-05-06T06:28:06.043Z,1008.46
2019-05-06T06:29:06.012Z,1008.45
2019-05-06T06:30:06.000Z,1008.44
2019-05-06T06:31:05.987Z,1008.50
2019-05-06T06:32:05.975Z,1008.51
2019-05-06T06:33:05.966Z,1008.46
2019-05-06T06:34:05.978Z,1008.51
2019-05-06T06:35:11.035Z,1008.42
2019-05-06T06:36:06.929Z,1008.42
2019-05-06T06:37:05.918Z,1008.45
2019-05-06T06:38:05.904Z,1008.42
2019-05-06T06:39:05.913Z,1008.46
2019-05-06T06:40:05.884Z,1008.47
2019-05-06T06:41:05.871Z,1008.51
2019-05-06T06:42:05.859Z,1008.51
2019-05-06T06:43:05.847Z,1008.42
2019-05-06T06:44:05.855Z,1008.38
2019-05-06T06:45:05.825Z,1008.39
2019-05-06T06:46:09.263Z,1008.43
2019-05-06T06:47:05.800Z,1008.46
2019-05-06T06:48:05.787Z,1008.42
2019-05-06T06:49:05.796Z,1008.41
2019-05-06T06:50:05.764Z,1008.43
2019-05-06T06:51:05.754Z,1008.46
2019-05-06T06:52:11.281Z,1008.46
2019-05-06T06:53:06.728Z,1008.48
2019-05-06T06:54:05.758Z,1008.42
2019-05-06T06:55:05.706Z,1008.38
2019-05-06T06:56:05.694Z,1008.33
2019-05-06T06:57:09.158Z,1008.38
2019-05-06T06:58:05.673Z,1008.35
2019-05-06T06:59:05.660Z,1008.36
2019-05-06T07:00:05.665Z,1008.42
2019-05-06T07:01:05.635Z,1008.42
2019-05-06T07:02:05.625Z,1008.38
2019-05-06T07:03:05.613Z,1008.40
2019-05-06T07:04:10.618Z,1008.37
2019-05-06T07:05:06.608Z,1008.34
2019-05-06T07:06:05.578Z,1008.38
2019-05-06T07:07:05.573Z,1008.36
2019-05-06T07:08:05.557Z,1008.41
2019-05-06T07:09:05.552Z,1008.38
2019-05-06T07:10:05.550Z,1008.40
2019-05-06T07:11:05.521Z,1008.42
2019-05-06T07:12:05.557Z,1008.51
2019-05-06T07:13:05.500Z,1008.44
2019-05-06T07:14:05.494Z,1008.43
2019-05-06T07:15:05.495Z,1008.43
2019-05-06T07:16:05.466Z,1008.36
2019-05-06T07:17:05.453Z,1008.38
2019-05-06T07:18:05.444Z,1008.39
2019-05-06T07:19:05.430Z,1008.34
2019-05-06T07:20:05.447Z,1008.38
2019-05-06T07:21:06.298Z,1008.39
2019-05-06T07:22:06.999Z,1008.44
2019-05-06T07:23:05.384Z,1008.39
2019-05-06T07:24:05.373Z,1008.40
2019-05-06T07:25:05.385Z,1008.40
2019-05-06T07:26:05.352Z,1008.43
2019-05-06T07:27:05.339Z,1008.48
2019-05-06T07:28:05.328Z,1008.55
2019-05-06T07:29:15.280Z,1008.54
2019-05-06T07:30:06.327Z,1008.53
2019-05-06T07:31:20.713Z,1008.52
2019-05-06T07:32:06.278Z,1008.46
2019-05-06T07:33:05.271Z,1008.49
2019-05-06T07:34:05.253Z,1008.48
2019-05-06T07:35:06.323Z,1008.45
2019-05-06T07:36:05.250Z,1008.45
2019-05-06T07:37:05.216Z,1008.48
2019-05-06T07:38:05.204Z,1008.47
2019-05-06T07:39:05.213Z,1008.40
2019-05-06T07:40:05.181Z,1008.37
2019-05-06T07:41:05.196Z,1008.47
2019-05-06T07:42:05.159Z,1008.42
2019-05-06T07:43:05.147Z,1008.37
2019-05-06T07:44:05.135Z,1008.44
2019-05-06T07:45:06.472Z,1008.47
2019-05-06T07:46:05.136Z,1008.50
2019-05-06T07:47:05.100Z,1008.43
2019-05-06T07:48:05.088Z,1009.05
2019-05-06T07:49:05.075Z,1008.97
2019-05-06T07:50:05.065Z,1009.24
2019-05-06T07:51:05.051Z,1008.92
2019-05-06T07:52:05.060Z,1009.19
2019-05-06T07:53:05.033Z,1009.04
2019-05-06T07:54:05.017Z,1008.96
2019-05-06T07:55:05.010Z,1009.13
2019-05-06T07:56:04.994Z,1009.13
2019-05-06T07:57:04.999Z,1009.31
2019-05-06T07:58:04.974Z,1009.07
2019-05-06T07:59:04.961Z,1008.98
2019-05-06T08:00:04.948Z,1008.95
2019-05-06T08:01:04.936Z,1008.97
2019-05-06T08:02:04.943Z,1009.13
2019-05-06T08:03:04.914Z,1009.18
2019-05-06T08:04:04.903Z,1009.26
2019-05-06T08:05:07.535Z,1009.25
2019-05-06T08:06:04.880Z,1009.31
2019-05-06T08:07:04.892Z,1009.36
2019-05-06T08:08:04.872Z,1009.27
2019-05-06T08:09:04.844Z,1009.02
2019-05-06T08:10:04.832Z,1009.20
2019-05-06T08:11:04.825Z,1009.33
2019-05-06T08:12:04.827Z,1008.97
2019-05-06T08:13:04.799Z,1009.24
2019-05-06T08:14:04.787Z,1008.85
2019-05-06T08:15:05.820Z,1009.12
2019-05-06T08:16:04.774Z,1009.24
2019-05-06T08:17:04.768Z,1009.32
2019-05-06T08:18:04.752Z,1009.38
2019-05-06T08:19:04.731Z,1009.40
2019-05-06T08:20:04.731Z,1008.99
2019-05-06T08:21:04.707Z,1008.81
2019-05-06T08:22:04.715Z,1009.35
2019-05-06T08:23:04.685Z,1009.29
2019-05-06T08:24:04.673Z,1009.27
2019-05-06T08:25:04.661Z,1009.29
2019-05-06T08:26:12.466Z,1008.83
2019-05-06T08:27:05.660Z,1008.64
2019-05-06T08:28:04.627Z,1009.30
2019-05-06T08:29:04.617Z,1009.39
2019-05-06T08:30:04.608Z,1009.25
2019-05-06T08:31:04.595Z,1008.70
2019-05-06T08:32:04.607Z,1009.33
2019-05-06T08:33:04.573Z,1009.26
2019-05-06T08:34:04.559Z,1009.35
2019-05-06T08:35:04.549Z,1009.32
2019-05-06T08:36:11.342Z,1009.36
2019-05-06T08:37:05.544Z,1009.28
2019-05-06T08:38:04.517Z,1009.33
2019-05-06T08:39:04.506Z,1009.29
2019-05-06T08:40:04.494Z,1009.26
2019-05-06T08:41:04.483Z,1009.21
2019-05-06T08:42:04.473Z,1009.25
2019-05-06T08:43:04.479Z,1009.23
2019-05-06T08:44:04.454Z,1009.25
2019-05-06T08:45:07.010Z,1009.26
2019-05-06T08:46:04.427Z,1009.14
2019-05-06T08:47:04.415Z,1009.24
2019-05-06T08:48:04.431Z,1009.19
2019-05-06T08:49:04.395Z,1009.22
2019-05-06T08:50:04.387Z,1009.23
2019-05-06T08:51:04.400Z,1009.16
2019-05-06T08:52:04.363Z,1008.96
2019-05-06T08:53:05.090Z,1008.45
2019-05-06T08:54:04.340Z,1008.37
2019-05-06T08:55:04.883Z,1008.36
2019-05-06T08:56:04.318Z,1008.30
2019-05-06T08:57:04.308Z,1008.38
2019-05-06T08:58:04.320Z,1008.35
2019-05-06T08:59:04.284Z,1009.05
2019-05-06T09:00:04.275Z,1009.07
2019-05-06T09:01:04.263Z,1009.08
2019-05-06T09:02:04.252Z,1009.09
2019-05-06T09:03:04.671Z,1008.98
2019-05-06T09:04:09.462Z,1009.13
2019-05-06T09:05:05.218Z,1009.02
2019-05-06T09:06:07.287Z,1009.01
2019-05-06T09:07:04.201Z,1009.07
2019-05-06T09:08:04.187Z,1009.03
2019-05-06T09:09:04.194Z,1009.00
2019-05-06T09:10:04.160Z,1009.03
2019-05-06T09:11:04.151Z,1009.01
2019-05-06T09:12:04.139Z,1009.01
2019-05-06T09:13:04.131Z,1008.96
2019-05-06T09:14:04.161Z,1008.97
2019-05-06T09:15:04.106Z,1008.98
2019-05-06T09:16:04.122Z,1008.96
2019-05-06T09:17:04.086Z,1008.90
2019-05-06T09:18:04.073Z,1008.89
2019-05-06T09:19:04.632Z,1008.91
2019-05-06T09:20:04.072Z,1008.88
2019-05-06T09:21:04.041Z,1008.83
2019-05-06T09:22:04.031Z,1008.93
2019-05-06T09:23:04.712Z,1008.89
2019-05-06T09:24:04.011Z,1008.92
2019-05-06T09:25:04.018Z,1008.92
2019-05-06T09:26:03.991Z,1008.88
2019-05-06T09:27:03.976Z,1008.86
2019-05-06T09:28:03.968Z,1008.78
2019-05-06T09:29:03.957Z,1008.78
2019-05-06T09:30:03.987Z,1008.89
2019-05-06T09:31:03.936Z,1008.91
2019-05-06T09:32:03.924Z,1008.85
2019-05-06T09:33:03.916Z,1008.88
2019-05-06T09:34:03.902Z,1008.28
2019-05-06T09:35:03.892Z,1008.13
2019-05-06T09:36:03.901Z,1008.88
2019-05-06T09:37:03.931Z,1008.91
2019-05-06T09:38:03.861Z,1008.71
2019-05-06T09:39:03.876Z,1008.21
2019-05-06T09:40:03.840Z,1008.17
2019-05-06T09:41:05.005Z,1008.08
2019-05-06T09:42:03.817Z,1008.14
2019-05-06T09:43:04.696Z,1008.13
2019-05-06T09:44:03.794Z,1008.13
2019-05-06T09:45:03.781Z,1008.17
2019-05-06T09:46:03.792Z,1008.37
2019-05-06T09:47:03.760Z,1008.91
2019-05-06T09:48:04.296Z,1008.91
2019-05-06T09:49:03.737Z,1008.96
2019-05-06T09:50:03.728Z,1008.35
2019-05-06T09:51:03.747Z,1008.85
2019-05-06T09:52:03.702Z,1008.98
2019-05-06T09:53:03.695Z,1008.91
2019-05-06T09:54:04.201Z,1008.87
2019-05-06T09:55:03.669Z,1008.15
2019-05-06T09:56:03.669Z,1008.13
2019-05-06T09:57:03.667Z,1008.12
2019-05-06T09:58:03.768Z,1008.09
2019-05-06T09:59:03.625Z,1008.08
2019-05-06T10:00:04.895Z,1008.14
2019-05-06T10:01:03.600Z,1008.10
2019-05-06T10:02:03.630Z,1008.03
2019-05-06T10:03:03.958Z,1008.07
2019-05-06T10:04:03.566Z,1008.11
2019-05-06T10:05:03.804Z,1008.02
2019-05-06T10:06:03.547Z,1008.32
2019-05-06T10:07:03.552Z,1008.65
2019-05-06T10:08:03.522Z,1008.65
2019-05-06T10:09:04.852Z,1008.19
2019-05-06T10:10:03.503Z,1008.19
2019-05-06T10:11:03.486Z,1008.01
2019-05-06T10:12:03.493Z,1008.09
2019-05-06T10:13:03.462Z,1008.09
2019-05-06T10:14:03.456Z,1008.06
2019-05-06T10:15:03.518Z,1008.05
2019-05-06T10:16:03.428Z,1008.11
2019-05-06T10:17:04.438Z,1008.08
2019-05-06T10:18:04.527Z,1008.05
2019-05-06T10:19:03.393Z,1008.07
2019-05-06T10:20:03.394Z,1008.02
2019-05-06T10:21:03.386Z,1007.97
2019-05-06T10:22:03.678Z,1008.01
2019-05-06T10:23:03.348Z,1008.01
2019-05-06T10:24:03.333Z,1007.97
2019-05-06T10:25:03.902Z,1008.09
2019-05-06T10:26:04.603Z,1008.55
2019-05-06T10:27:03.299Z,1008.18
2019-05-06T10:28:03.333Z,1008.73
2019-05-06T10:29:03.276Z,1008.61
2019-05-06T10:30:03.526Z,1008.63
2019-05-06T10:31:03.250Z,1008.59
2019-05-06T10:32:12.074Z,1008.22
2019-05-06T10:33:03.234Z,1008.17
2019-05-06T10:34:03.518Z,1008.10
2019-05-06T10:35:03.209Z,1007.99
2019-05-06T10:36:03.197Z,1008.08
2019-05-06T10:37:12.551Z,1007.98
2019-05-06T10:38:04.169Z,1007.93
2019-05-06T10:39:03.159Z,1007.95
2019-05-06T10:40:03.484Z,1007.96
2019-05-06T10:41:07.206Z,1008.01
2019-05-06T10:42:03.123Z,1007.92
2019-05-06T10:43:03.130Z,1007.93
2019-05-06T10:44:03.224Z,1007.91
2019-05-06T10:45:03.092Z,1007.88
2019-05-06T10:46:04.112Z,1007.95
2019-05-06T10:47:03.108Z,1007.89
2019-05-06T10:48:03.072Z,1007.89
2019-05-06T10:49:03.046Z,1007.87
2019-05-06T10:50:03.034Z,1007.88
2019-05-06T10:51:03.590Z,1007.83
2019-05-06T10:52:03.011Z,1007.83
2019-05-06T10:53:03.018Z,1007.81
2019-05-06T10:54:03.293Z,1007.93
2019-05-06T10:55:03.469Z,1007.88
2019-05-06T10:56:02.972Z,1007.94
2019-05-06T10:57:02.947Z,1007.89
2019-05-06T10:58:02.957Z,1007.85
2019-05-06T10:59:02.924Z,1007.82
2019-05-06T11:00:02.926Z,1007.86
2019-05-06T11:01:03.603Z,1007.81
2019-05-06T11:02:05.434Z,1007.82
2019-05-06T11:03:02.897Z,1007.90
2019-05-06T11:04:02.993Z,1007.91
2019-05-06T11:05:02.993Z,1007.87
2019-05-06T11:06:02.843Z,1007.85
2019-05-06T11:07:04.093Z,1007.89
2019-05-06T11:08:02.862Z,1007.79
2019-05-06T11:09:03.318Z,1007.74
2019-05-06T11:10:02.984Z,1007.87
2019-05-06T11:11:14.942Z,1007.92
2019-05-06T11:12:03.772Z,1007.80
2019-05-06T11:13:03.474Z,1007.76
2019-05-06T11:14:03.194Z,1007.79
2019-05-06T11:15:03.472Z,1007.72
2019-05-06T11:16:03.420Z,1007.73
2019-05-06T11:17:05.112Z,1007.74
2019-05-06T11:18:04.757Z,1007.67
2019-05-06T11:19:05.174Z,1007.64
2019-05-06T11:20:06.197Z,1007.63
2019-05-06T11:21:03.500Z,1007.65
2019-05-06T11:22:03.683Z,1007.51
2019-05-06T11:23:02.644Z,1007.65
2019-05-06T11:24:05.958Z,1007.60
2019-05-06T11:25:03.310Z,1007.58
2019-05-06T11:26:03.181Z,1007.55
2019-05-06T11:27:03.349Z,1007.65
2019-05-06T11:28:03.035Z,1007.64
2019-05-06T11:29:05.196Z,1007.69
2019-05-06T11:30:02.588Z,1007.62
2019-05-06T11:31:02.692Z,1007.59
2019-05-06T11:32:02.537Z,1007.65
2019-05-06T11:33:04.809Z,1007.62
2019-05-06T11:34:02.547Z,1007.62
2019-05-06T11:35:03.767Z,1007.69
2019-05-06T11:36:02.490Z,1007.65
2019-05-06T11:37:02.479Z,1007.72
2019-05-06T11:38:02.467Z,1007.66
2019-05-06T11:39:02.457Z,1007.64
2019-05-06T11:40:02.464Z,1007.76
2019-05-06T11:41:02.453Z,1007.72
2019-05-06T11:42:23.828Z,1007.72
2019-05-06T11:43:03.411Z,1007.67
2019-05-06T11:44:02.396Z,1007.73
2019-05-06T11:45:03.198Z,1007.63
2019-05-06T11:46:02.542Z,1007.69
2019-05-06T11:47:03.379Z,1007.73
2019-05-06T11:48:02.348Z,1007.60
2019-05-06T11:49:02.337Z,1007.71
2019-05-06T11:50:04.992Z,1007.71
2019-05-06T11:51:02.324Z,1007.70
2019-05-06T11:52:02.536Z,1007.60
2019-05-06T11:53:02.578Z,1007.69
2019-05-06T11:54:02.882Z,1007.70
2019-05-06T11:55:03.282Z,1007.67
2019-05-06T11:56:02.372Z,1007.69
2019-05-06T11:57:02.946Z,1007.67
2019-05-06T11:58:02.687Z,1007.68
2019-05-06T11:59:02.536Z,1007.67
2019-05-06T12:00:03.093Z,1007.63
2019-05-06T12:01:02.861Z,1007.65
2019-05-06T12:02:02.763Z,1007.63
2019-05-06T12:03:02.454Z,1007.63
2019-05-06T12:04:02.659Z,1007.72
2019-05-06T12:05:02.431Z,1007.67
2019-05-06T12:06:03.875Z,1007.82